Aeroporto :
LOGIN :

Iscrizione | Disclaimer

   EN    FR    IT 

 










Sommario :    VFR   VFR Marginale   IFR   IFR Intensivo   IFR Molto Intensivo
Visibilità : 
Base nubi : 
>= 8 km
>= 3000ft
5 / 8 km
1000 / 3000 ft
1500m / 5 km
500 / 1000 ft
800 / 1500m
200 / 500 ft
< 800m
< 200 ft
Simboli :   Temporali  Nebbia  Neve Forte  Precipitazioni Forti  Vento > 20 kt
SIGMETs :   Varie  Temporali  Ghiacco  Turbolenza  Onda orograficha  Ceneri Vulcaniche







- Altitudine del aeroporto : 171 ft
- Codice IATA : EGC
- Carte del aeroporto


LFBE - Bergerac

ULTIMO METAR :
  • 232100Z AUTO 28007KT CAVOK 17/13 Q1017

METARs OBSOLETI :
  • 232030Z AUTO 28009KT 9999 -RA NSC 19/13 Q1017
  • 232000Z AUTO 28008KT CAVOK 20/12 Q1016 TEMPO -TSRA BKN050CB
  • 231930Z AUTO 27009KT 9999 ///TCU 21/12 Q1016 TEMPO -TSRA BKN050CB
  • 231900Z AUTO 28007KT CAVOK 21/12 Q1016 TEMPO -TSRA BKN050CB
  • 231830Z AUTO 28006KT CAVOK 21/13 Q1016 TEMPO -TSRA BKN050CB
  • 231800Z AUTO 30004KT CAVOK 22/13 Q1015 NOSIG

TAF TAF LFBE
Valido dal 23 a 12 ore il 24 a 12 ore UTC


231100Z 2312/2412 VRB02KT CAVOK
BECMG 2314/2316 28005KT
TEMPO 2320/2403 SHRA BKN060TCU
PROB30 2320/2323 -TSRA BKN050CB
PROB40 2403/2412 3000 RA BKN006
PROB30
TEMPO 2408/2412 1500 +RA OVC003
Nessun NOTAM noto per questo aeroporto.
1 SIGMET conosciuto per la FIR Bordeaux (LFBB) :
 
Temporali affogati
LFBB SIGMET 2 VALID 231900/232100 LFPW
LFBB BORDEAUX FIR/UIR EMBD TS FCST WI N4245 E00015 - N4245 W00100 - N4415 E00015 - N4415 E00100 - N4245 E00015 TOP FL320 MOV NE 15KT NC=



MetMap, La meteo Aeronautica in un colpo d'occhio ! - Copyright ORBIFLY Dicembre 2007 - Disclaimer

ORBIFLY MET'MAP TEAM :

Programmazione e sviluppo : Alexandra Zaïnal
Concezione e sviluppo : Baudouin d'Aumeries
Co-Programmazione e sviluppo : Marc-Olivier Méhu
Supporto tecnico e logistico : Manuel Goepfert
Aiuto per la traduzione : Arnaldo La Scala

Contatto : metmap@orbifly.com




FONTI E CREDITI :

   NOAA